Time;durP1;ratioP1;P1;durP2;ratioP2;P2;SDS_P1;SDS_P2;PMS_P1;PMS_P2;Temp;Humidity;BMP_temperature;BMP_pressure;BME280_temperature;BME280_humidity;BME280_pressure;Samples;Min_cycle;Max_cycle;Signal;HPM_P1;HPM_P2
2022/03/23 00:00:26;;;;;;;64.40;45.05;;;9.00;95.50;;;;;;5036255;28;20041;-50
2022/03/23 00:02:53;;;;;;;68.93;45.05;;;9.00;95.60;;;;;;5036173;28;20063;-45
2022/03/23 00:05:20;;;;;;;62.40;44.40;;;9.00;95.70;;;;;;5046289;28;20046;-47
2022/03/23 00:07:46;;;;;;;60.88;44.35;;;8.90;95.70;;;;;;5036167;28;20072;-48
2022/03/23 00:10:13;;;;;;;63.95;46.85;;;8.90;95.70;;;;;;5046076;28;20389;-48
2022/03/23 00:12:42;;;;;;;63.53;45.33;;;8.80;95.80;;;;;;5055221;28;20132;-49
2022/03/23 00:15:09;;;;;;;59.60;44.75;;;8.80;95.80;;;;;;5055142;28;20037;-50
2022/03/23 00:17:36;;;;;;;63.85;45.47;;;8.80;95.90;;;;;;5054006;28;20052;-47
2022/03/23 00:20:04;;;;;;;64.20;44.97;;;8.70;95.70;;;;;;5054933;28;20079;-45
2022/03/23 00:22:30;;;;;;;62.10;45.40;;;8.70;95.90;;;;;;5054660;28;20041;-49
2022/03/23 00:24:57;;;;;;;60.53;44.70;;;8.60;96.10;;;;;;5054853;28;20037;-53
2022/03/23 00:27:24;;;;;;;63.15;45.42;;;8.60;96.20;;;;;;5054833;28;20120;-52
2022/03/23 00:29:51;;;;;;;63.55;44.88;;;8.50;96.10;;;;;;5054811;28;20435;-49
2022/03/23 00:32:18;;;;;;;63.33;43.40;;;8.50;96.10;;;;;;5054833;28;20072;-52
2022/03/23 00:34:44;;;;;;;61.33;43.55;;;8.50;96.20;;;;;;5052921;28;20041;-48
2022/03/23 00:37:11;;;;;;;63.30;44.40;;;8.50;96.20;;;;;;5054764;28;20613;-47
2022/03/23 00:39:38;;;;;;;60.78;43.92;;;8.40;96.10;;;;;;5053296;28;20049;-52
2022/03/23 00:42:04;;;;;;;57.25;43.72;;;8.40;96.20;;;;;;5054619;28;20045;-47
2022/03/23 00:44:32;;;;;;;60.15;44.05;;;8.40;96.20;;;;;;5054846;28;20087;-48
2022/03/23 00:46:58;;;;;;;64.00;43.33;;;8.30;96.30;;;;;;5053177;28;20487;-50
2022/03/23 00:49:26;;;;;;;60.70;44.55;;;8.30;96.40;;;;;;5053671;28;20095;-49
2022/03/23 00:51:53;;;;;;;60.00;44.40;;;8.30;96.60;;;;;;5053243;28;20041;-44
2022/03/23 00:54:21;;;;;;;65.28;43.22;;;8.20;96.50;;;;;;5053169;28;20116;-45
2022/03/23 00:56:50;;;;;;;61.65;45.40;;;8.20;96.50;;;;;;5054427;28;20041;-46
2022/03/23 00:59:17;;;;;;;67.95;45.22;;;8.20;96.40;;;;;;5054359;28;20045;-49
2022/03/23 01:01:45;;;;;;;64.40;46.13;;;8.20;96.60;;;;;;5053080;28;20136;-48
2022/03/23 01:04:12;;;;;;;62.58;43.45;;;8.10;96.60;;;;;;5052074;28;20060;-47
2022/03/23 01:06:40;;;;;;;63.08;44.40;;;8.10;96.60;;;;;;5054295;28;20128;-51
2022/03/23 01:09:07;;;;;;;61.97;44.97;;;8.00;96.70;;;;;;5052726;28;20053;-50
2022/03/23 01:11:33;;;;;;;60.78;44.70;;;8.00;96.70;;;;;;5038954;28;20080;-45
2022/03/23 01:14:00;;;;;;;58.47;43.45;;;8.00;96.70;;;;;;5033654;28;20052;-45
2022/03/23 01:16:28;;;;;;;60.17;43.17;;;7.90;96.70;;;;;;5036901;28;20037;-43
2022/03/23 09:52:38;;;;;;;58.78;37.35;;;10.50;92.10;;;;;;5070222;28;20708;-49
2022/03/23 09:55:04;;;;;;;55.92;38.55;;;10.60;91.90;;;;;;5058908;28;20080;-47
2022/03/23 09:57:31;;;;;;;61.10;39.25;;;10.80;91.40;;;;;;5050409;28;20064;-50
2022/03/23 09:59:58;;;;;;;54.60;38.30;;;10.90;91.40;;;;;;5050503;28;20042;-47
2022/03/23 10:02:45;;;;;;;48.75;33.67;;;11.10;91.20;;;;;;5049517;28;20060;-50
2022/03/23 10:05:12;;;;;;;47.30;32.08;;;11.20;90.30;;;;;;5050435;28;20034;-51
2022/03/23 10:07:39;;;;;;;46.42;33.42;;;11.40;88.10;;;;;;5050401;28;20048;-50
2022/03/23 10:10:06;;;;;;;47.40;31.75;;;11.50;87.60;;;;;;5043703;28;20091;-51
2022/03/23 10:12:32;;;;;;;42.90;31.20;;;11.70;87.20;;;;;;5050171;28;20041;-51
2022/03/23 10:14:59;;;;;;;44.22;29.55;;;11.80;86.30;;;;;;5050343;28;20543;-48
2022/03/23 10:17:26;;;;;;;42.70;31.00;;;12.00;84.70;;;;;;5050289;28;20049;-50
2022/03/23 10:19:53;;;;;;;46.65;29.58;;;12.10;84.20;;;;;;5050049;28;20064;-50
2022/03/23 10:22:20;;;;;;;44.53;30.92;;;12.20;83.60;;;;;;5050000;28;20045;-51
2022/03/23 10:24:49;;;;;;;38.05;28.77;;;12.30;83.40;;;;;;5050030;28;20511;-47
2022/03/23 10:27:17;;;;;;;41.10;26.67;;;12.40;82.00;;;;;;5049809;28;20037;-50
2022/03/23 10:29:43;;;;;;;39.45;26.42;;;12.60;80.50;;;;;;5049764;28;20083;-47
2022/03/23 10:32:10;;;;;;;37.40;26.92;;;12.70;80.40;;;;;;5049697;28;20469;-46
2022/03/23 10:34:37;;;;;;;41.38;26.25;;;12.80;79.90;;;;;;5049638;28;20065;-46
2022/03/23 10:37:04;;;;;;;55.50;28.38;;;12.90;79.50;;;;;;5049938;28;20400;-48
2022/03/23 10:39:30;;;;;;;45.72;28.83;;;13.10;78.40;;;;;;5049507;28;20082;-48
2022/03/23 10:41:57;;;;;;;41.72;26.08;;;13.20;77.50;;;;;;5049628;28;20122;-48
2022/03/23 10:44:24;;;;;;;42.78;26.17;;;13.10;78.10;;;;;;5049555;28;20496;-47
2022/03/23 10:46:51;;;;;;;36.45;25.17;;;13.30;75.20;;;;;;5053408;28;20415;-53
2022/03/23 10:49:18;;;;;;;28.70;20.67;;;13.30;75.10;;;;;;5049475;28;20042;-47
2022/03/23 10:51:44;;;;;;;27.95;18.50;;;13.50;72.90;;;;;;5049186;28;20045;-51
2022/03/23 10:54:11;;;;;;;24.50;18.05;;;13.70;69.30;;;;;;5052170;28;20404;-44
2022/03/23 10:56:38;;;;;;;25.13;18.83;;;13.80;67.80;;;;;;5049415;28;20037;-49
2022/03/23 10:59:05;;;;;;;25.17;18.90;;;13.90;65.30;;;;;;5049143;28;20115;-46
2022/03/23 11:01:31;;;;;;;29.42;20.50;;;13.90;65.60;;;;;;5049239;28;20426;-49
2022/03/23 11:03:58;;;;;;;161.93;33.05;;;13.90;66.80;;;;;;5036028;28;20042;-50
2022/03/23 11:06:25;;;;;;;44.95;24.98;;;14.00;67.80;;;;;;5035339;28;20493;-45
2022/03/23 11:08:52;;;;;;;38.67;25.33;;;14.00;68.90;;;;;;5035138;28;20128;-49
2022/03/23 11:16:49;;;;;;;35.13;20.15;;;14.10;68.80;;;;;;5033644;28;20048;-52
2022/03/23 11:19:18;;;;;;;26.48;17.10;;;14.30;65.30;;;;;;5033423;28;20546;-49
2022/03/23 11:21:52;;;;;;;24.17;15.75;;;14.40;64.20;;;;;;5033207;28;20049;-52
2022/03/23 11:24:19;;;;;;;22.67;16.45;;;14.50;58.40;;;;;;5039457;28;20083;-49
2022/03/23 11:26:46;;;;;;;25.67;16.85;;;14.60;61.00;;;;;;5033440;28;20476;-55
2022/03/23 11:29:13;;;;;;;21.27;16.88;;;14.60;60.40;;;;;;5033761;28;20441;-54
2022/03/23 11:31:40;;;;;;;26.60;14.93;;;14.60;60.00;;;;;;5035416;28;20037;-50
2022/03/23 11:34:09;;;;;;;21.52;14.73;;;14.70;57.90;;;;;;5035433;28;20100;-53
2022/03/23 11:36:35;;;;;;;21.67;13.80;;;14.80;56.90;;;;;;5035423;28;20045;-50
2022/03/23 11:39:04;;;;;;;19.58;13.52;;;14.90;53.70;;;;;;5035385;28;20405;-52
2022/03/23 11:41:31;;;;;;;19.60;14.38;;;15.00;53.50;;;;;;5035228;28;20068;-52
2022/03/23 11:43:57;;;;;;;24.02;15.32;;;15.00;52.60;;;;;;5035321;28;20464;-53
2022/03/23 11:46:24;;;;;;;24.30;15.77;;;15.10;53.10;;;;;;5035109;28;20091;-54
2022/03/23 11:48:52;;;;;;;99.88;21.65;;;15.10;53.60;;;;;;5034985;28;20049;-47
2022/03/23 11:51:19;;;;;;;25.30;15.68;;;15.20;53.20;;;;;;5034743;28;20056;-50
2022/03/23 11:53:45;;;;;;;25.08;14.25;;;15.20;52.10;;;;;;5036915;28;20042;-52
2022/03/23 11:56:12;;;;;;;21.25;14.48;;;15.20;51.50;;;;;;5035096;28;20037;-49
2022/03/23 11:58:39;;;;;;;18.70;13.90;;;15.30;51.50;;;;;;5034985;28;20488;-44
2022/03/23 12:01:06;;;;;;;59.72;17.38;;;15.40;50.10;;;;;;5034851;28;20037;-50
2022/03/23 12:03:33;;;;;;;65.95;19.23;;;15.40;50.70;;;;;;5034624;28;20107;-49
2022/03/23 12:05:59;;;;;;;23.02;13.77;;;15.40;51.60;;;;;;5034810;28;20048;-49
2022/03/23 12:08:26;;;;;;;19.30;11.88;;;15.50;50.60;;;;;;5034598;28;20443;-51
2022/03/23 12:10:53;;;;;;;19.98;12.90;;;15.50;51.00;;;;;;5034432;28;20556;-54
2022/03/23 12:13:20;;;;;;;16.20;11.27;;;15.60;50.20;;;;;;5034544;28;20109;-49
2022/03/23 12:15:47;;;;;;;16.60;11.43;;;15.70;47.60;;;;;;5033755;28;20057;-48
2022/03/23 12:18:16;;;;;;;20.23;11.73;;;15.80;48.50;;;;;;5034401;28;20077;-52
2022/03/23 12:20:43;;;;;;;14.52;10.40;;;15.80;46.60;;;;;;5034363;28;20041;-46
2022/03/23 12:23:10;;;;;;;15.07;10.52;;;15.80;48.20;;;;;;5038678;28;20041;-51
2022/03/23 12:25:37;;;;;;;15.25;10.52;;;15.90;47.70;;;;;;5034336;28;20439;-47
2022/03/23 12:28:04;;;;;;;21.75;12.30;;;16.00;47.40;;;;;;5034200;28;20378;-48
2022/03/23 12:30:31;;;;;;;15.57;11.20;;;16.10;46.90;;;;;;5033930;28;20147;-50
2022/03/23 12:32:58;;;;;;;19.00;11.13;;;16.20;47.00;;;;;;5034034;28;20400;-49
2022/03/23 12:35:25;;;;;;;17.63;10.80;;;16.20;45.40;;;;;;5034054;28;20086;-52
2022/03/23 12:37:51;;;;;;;14.77;10.73;;;16.20;46.30;;;;;;5032911;28;20084;-53
2022/03/23 12:40:18;;;;;;;16.38;10.50;;;16.30;45.30;;;;;;5033995;28;20042;-52
2022/03/23 12:42:45;;;;;;;15.38;10.52;;;16.30;45.50;;;;;;5033923;28;20129;-49
2022/03/23 12:45:12;;;;;;;21.00;10.63;;;16.30;45.50;;;;;;5033934;28;20515;-50
2022/03/23 12:47:40;;;;;;;17.33;9.90;;;16.30;44.70;;;;;;5033944;28;20124;-48
2022/03/23 12:58:23;;;;;;;14.57;9.07;;;16.40;45.10;;;;;;5033821;28;20052;-55
2022/03/23 13:00:50;;;;;;;13.60;9.65;;;16.40;45.00;;;;;;5033662;28;20493;-50
2022/03/23 13:03:22;;;;;;;17.17;9.80;;;16.60;43.10;;;;;;5033640;28;20075;-49
2022/03/23 13:05:50;;;;;;;18.90;10.50;;;16.70;42.70;;;;;;5033621;28;20045;-52
2022/03/23 13:08:17;;;;;;;11.80;8.68;;;16.70;42.90;;;;;;5033499;28;20068;-54
2022/03/23 13:10:44;;;;;;;18.38;9.90;;;16.70;42.50;;;;;;5033558;28;20041;-52
2022/03/23 13:13:11;;;;;;;18.98;9.55;;;16.70;42.10;;;;;;5033400;28;20076;-51
2022/03/23 13:15:38;;;;;;;13.85;9.48;;;16.70;42.10;;;;;;5033410;28;20108;-51
2022/03/23 13:18:05;;;;;;;15.40;9.38;;;16.60;42.50;;;;;;5033368;28;20046;-50
2022/03/23 13:20:32;;;;;;;12.88;9.15;;;16.60;43.40;;;;;;5033142;28;20041;-50
2022/03/23 13:23:00;;;;;;;20.17;9.95;;;16.50;42.70;;;;;;5034798;28;20120;-47
2022/03/23 13:25:28;;;;;;;15.77;9.35;;;16.60;43.30;;;;;;5033128;28;20171;-50
2022/03/23 13:27:54;;;;;;;15.18;9.13;;;16.70;43.30;;;;;;5033275;28;20092;-49
2022/03/23 13:30:23;;;;;;;14.07;9.38;;;16.80;44.10;;;;;;5033175;28;20053;-52
2022/03/23 13:32:50;;;;;;;13.93;8.85;;;16.80;42.80;;;;;;5033143;28;20124;-53
2022/03/23 13:35:17;;;;;;;17.10;10.18;;;16.90;41.90;;;;;;5033077;28;20045;-48
2022/03/23 13:37:51;;;;;;;16.55;9.85;;;16.90;42.90;;;;;;5033296;28;20100;-55
2022/03/23 13:40:20;;;;;;;14.80;9.57;;;16.80;42.50;;;;;;5033156;28;20091;-51
2022/03/23 13:45:32;;;;;;;13.35;9.40;;;17.00;41.40;;;;;;5031834;28;20075;-48
2022/03/23 13:48:00;;;;;;;18.85;9.95;;;17.00;41.10;;;;;;5032866;28;20046;-52
2022/03/23 13:50:27;;;;;;;16.13;9.93;;;17.00;41.40;;;;;;5032946;28;20046;-50
2022/03/23 13:52:54;;;;;;;13.50;9.43;;;16.90;40.20;;;;;;5035019;28;20468;-52
2022/03/23 13:55:21;;;;;;;17.23;9.52;;;16.80;41.50;;;;;;5033019;28;20428;-53
2022/03/23 13:57:48;;;;;;;20.55;10.45;;;16.90;40.50;;;;;;5033161;28;20038;-47
2022/03/23 14:00:15;;;;;;;13.93;9.98;;;16.90;40.70;;;;;;5032772;28;20045;-53
2022/03/23 14:02:41;;;;;;;16.42;10.18;;;17.00;40.40;;;;;;5032922;28;20089;-54
2022/03/23 14:05:24;;;;;;;18.70;10.73;;;17.00;40.30;;;;;;5033324;28;20056;-51
2022/03/23 14:07:50;;;;;;;44.65;14.63;;;16.90;40.30;;;;;;5031776;28;20240;-51
2022/03/23 14:10:17;;;;;;;17.33;11.05;;;16.80;40.80;;;;;;5032991;28;20053;-47
2022/03/23 14:12:44;;;;;;;19.08;10.77;;;16.90;41.40;;;;;;5032677;28;20049;-52
2022/03/23 14:15:32;;;;;;;13.88;9.88;;;17.00;42.10;;;;;;5033026;28;20049;-50
2022/03/23 14:17:59;;;;;;;16.35;11.43;;;17.10;41.10;;;;;;5033065;28;20473;-53
2022/03/23 14:20:26;;;;;;;15.90;11.05;;;17.10;40.20;;;;;;5031531;28;20041;-52
2022/03/23 14:22:53;;;;;;;17.98;10.73;;;17.00;41.50;;;;;;5036443;28;20395;-52
2022/03/23 14:25:20;;;;;;;18.83;10.07;;;17.00;41.80;;;;;;5032581;28;20069;-54
2022/03/23 14:27:49;;;;;;;16.98;11.30;;;17.00;41.70;;;;;;5032664;28;20043;-47
2022/03/23 14:30:16;;;;;;;20.58;10.48;;;17.10;41.20;;;;;;5032621;28;20080;-50
2022/03/23 14:32:42;;;;;;;17.05;10.57;;;17.20;41.80;;;;;;5036110;28;20069;-55
2022/03/23 14:35:10;;;;;;;18.20;10.77;;;17.20;42.00;;;;;;5032733;28;20052;-50
2022/03/23 14:37:37;;;;;;;17.17;11.20;;;17.30;42.10;;;;;;5033708;28;20041;-50
2022/03/23 14:40:04;;;;;;;15.27;10.40;;;17.30;42.00;;;;;;5036431;28;20388;-52
2022/03/23 14:42:30;;;;;;;18.70;12.02;;;17.40;42.20;;;;;;5036661;28;20120;-52
2022/03/23 14:44:59;;;;;;;14.35;11.85;;;17.40;42.00;;;;;;5036476;28;20042;-48
2022/03/23 14:47:26;;;;;;;14.85;11.65;;;17.40;41.80;;;;;;5035774;28;20091;-47
2022/03/23 14:49:52;;;;;;;18.27;11.20;;;17.40;41.30;;;;;;5035085;28;20042;-50
2022/03/23 14:52:19;;;;;;;14.52;11.07;;;17.40;42.10;;;;;;5041366;28;20123;-51
2022/03/23 14:54:46;;;;;;;19.27;12.80;;;17.50;41.60;;;;;;5036168;28;20116;-54
2022/03/23 14:57:13;;;;;;;19.90;12.18;;;17.40;41.30;;;;;;5040138;28;20034;-47
2022/03/23 14:59:44;;;;;;;17.83;12.18;;;17.30;40.40;;;;;;5036263;28;20041;-51
2022/03/23 15:02:10;;;;;;;13.80;11.13;;;17.40;40.00;;;;;;5036181;28;20107;-48
2022/03/23 15:04:37;;;;;;;15.55;11.07;;;17.30;41.10;;;;;;5035998;28;20041;-53
2022/03/23 15:15:44;;;;;;;;;;;17.50;41.50;;;;;;5030346;28;20144;-50
2022/03/23 15:18:11;;;;;;;18.15;11.90;;;17.50;40.60;;;;;;5029280;28;19925;-55
2022/03/23 15:20:38;;;;;;;16.02;11.27;;;17.40;41.60;;;;;;5041326;28;20038;-55
2022/03/23 15:23:05;;;;;;;16.65;11.40;;;17.50;41.60;;;;;;5035944;28;20037;-53
2022/03/23 15:25:32;;;;;;;18.83;11.77;;;17.60;40.90;;;;;;5035616;28;20041;-49
2022/03/23 15:27:59;;;;;;;17.58;11.73;;;17.60;41.20;;;;;;5037637;28;20132;-46
2022/03/23 15:30:25;;;;;;;19.30;11.45;;;17.70;40.90;;;;;;5035612;28;20037;-53
2022/03/23 15:32:52;;;;;;;17.65;11.80;;;17.70;41.50;;;;;;5035312;28;20128;-48
2022/03/23 15:35:19;;;;;;;25.08;18.40;;;17.90;41.50;;;;;;5035381;28;20060;-48
2022/03/23 15:37:46;;;;;;;26.23;18.42;;;18.00;44.00;;;;;;5035380;28;20061;-49
2022/03/23 15:40:12;;;;;;;29.88;18.77;;;18.00;44.80;;;;;;5035377;28;20045;-53
2022/03/23 15:45:24;;;;;;;25.73;17.02;;;18.10;44.80;;;;;;5035590;28;20049;-50
2022/03/23 15:47:51;;;;;;;25.95;16.33;;;18.00;45.60;;;;;;5035285;28;20068;-54
2022/03/23 21:53:30;;;;;;;61.90;26.98;;;8.70;82.50;;;;;;5108746;27;1273407;-56
2022/03/23 21:55:56;;;;;;;59.85;27.27;;;8.50;82.30;;;;;;5124312;27;20027;-56
2022/03/23 21:58:23;;;;;;;57.40;26.80;;;8.50;82.40;;;;;;5130878;28;20264;-54
2022/03/23 22:00:50;;;;;;;58.38;27.25;;;8.50;82.20;;;;;;5114686;28;20040;-54
2022/03/23 22:03:17;;;;;;;50.17;25.20;;;8.60;82.20;;;;;;5110638;28;20036;-50
2022/03/23 22:05:44;;;;;;;43.65;23.25;;;8.60;81.80;;;;;;5109578;28;20047;-52
2022/03/23 22:08:11;;;;;;;52.45;24.75;;;8.70;81.70;;;;;;5110225;28;20097;-52
2022/03/23 22:10:38;;;;;;;51.38;26.30;;;8.70;81.60;;;;;;5100456;28;20395;-55
2022/03/23 22:13:04;;;;;;;49.38;25.30;;;8.70;81.90;;;;;;5110424;28;20047;-47
2022/03/23 22:15:31;;;;;;;45.30;25.08;;;8.70;82.90;;;;;;5110222;28;20039;-49
2022/03/23 22:17:58;;;;;;;41.83;24.35;;;8.70;81.80;;;;;;5110509;28;20471;-49
2022/03/23 22:20:25;;;;;;;45.40;23.80;;;8.70;82.40;;;;;;5110212;28;20039;-52
2022/03/23 22:22:52;;;;;;;42.70;23.42;;;8.70;82.20;;;;;;5108725;28;20039;-49
2022/03/23 22:25:20;;;;;;;38.22;23.75;;;8.60;82.30;;;;;;5103919;28;20044;-50
2022/03/23 22:27:47;;;;;;;47.00;22.55;;;8.60;81.50;;;;;;5090448;28;20123;-53
2022/03/23 22:30:13;;;;;;;39.45;23.05;;;8.60;81.30;;;;;;5090324;28;20059;-51
2022/03/23 22:32:40;;;;;;;41.20;23.15;;;8.50;82.30;;;;;;5103450;28;20066;-55
2022/03/23 22:35:07;;;;;;;41.58;23.52;;;8.50;82.80;;;;;;5109892;28;20040;-47
2022/03/23 22:37:36;;;;;;;45.78;25.08;;;8.50;82.60;;;;;;5108497;28;20067;-53
2022/03/23 22:40:03;;;;;;;46.88;30.30;;;8.50;83.30;;;;;;5109571;28;20074;-55
2022/03/23 22:42:30;;;;;;;46.95;28.15;;;8.50;82.60;;;;;;5108317;28;20044;-50
2022/03/23 22:44:57;;;;;;;41.22;26.27;;;8.50;82.10;;;;;;5096428;28;20050;-50
2022/03/23 22:47:23;;;;;;;44.92;26.55;;;8.50;82.00;;;;;;5096975;28;20048;-48
2022/03/23 22:49:50;;;;;;;50.17;25.92;;;8.40;82.80;;;;;;5089826;28;20523;-53
2022/03/23 22:52:17;;;;;;;42.50;26.10;;;8.40;83.10;;;;;;5088500;28;20613;-55
2022/03/23 22:54:44;;;;;;;47.80;28.95;;;8.30;83.50;;;;;;5101848;28;20047;-50
2022/03/23 22:57:11;;;;;;;48.25;28.75;;;8.30;83.40;;;;;;5109794;28;20078;-48
2022/03/23 22:59:38;;;;;;;48.08;28.35;;;8.30;83.40;;;;;;5104186;28;20123;-52
2022/03/23 23:02:05;;;;;;;45.78;28.30;;;8.20;83.50;;;;;;5107081;28;20097;-55
2022/03/23 23:04:32;;;;;;;44.60;27.02;;;8.20;83.80;;;;;;5098010;28;20440;-54
2022/03/23 23:06:59;;;;;;;42.50;25.60;;;8.20;84.20;;;;;;5095829;28;20075;-47
2022/03/23 23:09:25;;;;;;;39.72;23.58;;;8.10;83.80;;;;;;5095670;28;20040;-48
2022/03/23 23:11:52;;;;;;;37.28;22.38;;;8.10;83.70;;;;;;5095476;28;20036;-50
2022/03/23 23:14:19;;;;;;;38.58;22.33;;;8.00;84.00;;;;;;5095543;28;20032;-53
2022/03/23 23:16:46;;;;;;;34.45;20.65;;;8.00;84.40;;;;;;5095544;28;20036;-56
2022/03/23 23:19:13;;;;;;;32.00;20.23;;;7.90;84.30;;;;;;5095263;28;20047;-48
2022/03/23 23:21:39;;;;;;;31.02;19.92;;;7.90;84.30;;;;;;5095471;28;20072;-54
2022/03/23 23:24:06;;;;;;;30.42;20.05;;;7.90;84.30;;;;;;5091783;28;20067;-53
2022/03/23 23:26:33;;;;;;;27.08;19.13;;;7.80;84.20;;;;;;5075744;28;20041;-47
2022/03/23 23:29:00;;;;;;;29.35;18.48;;;7.80;84.40;;;;;;5075872;28;20071;-52
2022/03/23 23:31:27;;;;;;;29.17;18.20;;;7.80;84.20;;;;;;5074557;28;20454;-48
2022/03/23 23:33:56;;;;;;;27.23;18.60;;;7.80;84.90;;;;;;5075685;28;20661;-58
2022/03/23 23:36:23;;;;;;;29.35;18.55;;;7.80;84.20;;;;;;5075749;28;20041;-52
2022/03/23 23:38:50;;;;;;;30.63;18.95;;;7.70;84.30;;;;;;5074417;28;20412;-47
2022/03/23 23:41:16;;;;;;;29.02;18.02;;;7.70;85.20;;;;;;5075614;28;20452;-55
2022/03/23 23:43:43;;;;;;;34.35;19.60;;;7.60;85.30;;;;;;5075565;28;20491;-55
2022/03/23 23:46:10;;;;;;;30.45;18.65;;;7.60;86.00;;;;;;5075419;28;20051;-48
2022/03/23 23:48:37;;;;;;;28.85;18.92;;;7.50;86.50;;;;;;5075194;28;20044;-46
2022/03/23 23:51:03;;;;;;;28.00;19.23;;;7.50;86.80;;;;;;5090823;28;20100;-48
2022/03/23 23:53:30;;;;;;;31.38;19.02;;;7.50;86.70;;;;;;5082452;28;20048;-55
